sensor_id;sensor_type;location;lat;lon;timestamp;P1;durP1;ratioP1;P2;durP2;ratioP2
57113;SDS011;42994;51.606;9.988;2023-03-23T00:00:26;2.88;;;1.25;;
57113;SDS011;42994;51.606;9.988;2023-03-23T00:02:52;3.53;;;1.25;;
57113;SDS011;42994;51.606;9.988;2023-03-23T00:05:19;1.90;;;0.90;;
57113;SDS011;42994;51.606;9.988;2023-03-23T00:07:46;2.45;;;1.20;;
57113;SDS011;42994;51.606;9.988;2023-03-23T00:10:17;2.83;;;1.10;;
57113;SDS011;42994;51.606;9.988;2023-03-23T00:12:44;2.35;;;1.33;;
57113;SDS011;42994;51.606;9.988;2023-03-23T00:15:16;3.30;;;1.15;;
57113;SDS011;42994;51.606;9.988;2023-03-23T00:17:43;2.83;;;1.23;;
57113;SDS011;42994;51.606;9.988;2023-03-23T00:20:09;2.88;;;1.10;;
57113;SDS011;42994;51.606;9.988;2023-03-23T00:22:37;1.85;;;0.98;;
57113;SDS011;42994;51.606;9.988;2023-03-23T00:25:06;2.20;;;1.10;;
57113;SDS011;42994;51.606;9.988;2023-03-23T00:27:34;2.38;;;1.13;;
57113;SDS011;42994;51.606;9.988;2023-03-23T00:30:00;2.67;;;1.30;;
57113;SDS011;42994;51.606;9.988;2023-03-23T00:32:28;3.55;;;1.10;;
57113;SDS011;42994;51.606;9.988;2023-03-23T00:34:55;2.28;;;1.13;;
57113;SDS011;42994;51.606;9.988;2023-03-23T00:37:23;2.30;;;1.20;;
57113;SDS011;42994;51.606;9.988;2023-03-23T00:39:50;3.15;;;1.05;;
57113;SDS011;42994;51.606;9.988;2023-03-23T00:42:22;2.38;;;1.35;;
57113;SDS011;42994;51.606;9.988;2023-03-23T00:44:49;2.17;;;1.08;;
57113;SDS011;42994;51.606;9.988;2023-03-23T00:47:18;2.03;;;1.00;;
57113;SDS011;42994;51.606;9.988;2023-03-23T00:49:47;2.95;;;1.20;;
57113;SDS011;42994;51.606;9.988;2023-03-23T00:52:15;3.28;;;1.20;;
57113;SDS011;42994;51.606;9.988;2023-03-23T00:54:41;2.67;;;1.17;;
57113;SDS011;42994;51.606;9.988;2023-03-23T00:57:08;3.33;;;1.30;;
57113;SDS011;42994;51.606;9.988;2023-03-23T00:59:35;3.25;;;1.50;;
57113;SDS011;42994;51.606;9.988;2023-03-23T01:02:02;2.47;;;1.25;;
57113;SDS011;42994;51.606;9.988;2023-03-23T01:04:28;3.95;;;1.65;;
57113;SDS011;42994;51.606;9.988;2023-03-23T01:06:58;2.45;;;1.40;;
57113;SDS011;42994;51.606;9.988;2023-03-23T01:09:25;3.43;;;1.50;;
57113;SDS011;42994;51.606;9.988;2023-03-23T01:11:53;1.98;;;1.35;;
57113;SDS011;42994;51.606;9.988;2023-03-23T01:14:20;4.25;;;1.50;;
57113;SDS011;42994;51.606;9.988;2023-03-23T01:16:49;2.83;;;1.38;;
57113;SDS011;42994;51.606;9.988;2023-03-23T01:19:16;2.92;;;1.27;;
57113;SDS011;42994;51.606;9.988;2023-03-23T01:21:42;1.63;;;1.23;;
57113;SDS011;42994;51.606;9.988;2023-03-23T01:24:11;4.28;;;1.42;;
57113;SDS011;42994;51.606;9.988;2023-03-23T01:26:37;1.83;;;1.02;;
57113;SDS011;42994;51.606;9.988;2023-03-23T01:29:04;2.60;;;1.40;;
57113;SDS011;42994;51.606;9.988;2023-03-23T01:31:31;1.58;;;1.00;;
57113;SDS011;42994;51.606;9.988;2023-03-23T01:33:57;3.40;;;1.20;;
57113;SDS011;42994;51.606;9.988;2023-03-23T01:38:55;1.23;;;1.13;;
57113;SDS011;42994;51.606;9.988;2023-03-23T01:41:25;2.63;;;1.05;;
57113;SDS011;42994;51.606;9.988;2023-03-23T01:43:55;1.00;;;0.85;;
57113;SDS011;42994;51.606;9.988;2023-03-23T01:46:25;3.20;;;1.30;;
57113;SDS011;42994;51.606;9.988;2023-03-23T01:48:52;4.50;;;1.02;;
57113;SDS011;42994;51.606;9.988;2023-03-23T01:51:23;3.97;;;1.20;;
57113;SDS011;42994;51.606;9.988;2023-03-23T01:53:53;1.10;;;0.80;;
57113;SDS011;42994;51.606;9.988;2023-03-23T01:56:22;1.17;;;1.05;;
57113;SDS011;42994;51.606;9.988;2023-03-23T01:58:55;1.00;;;0.93;;
57113;SDS011;42994;51.606;9.988;2023-03-23T02:01:23;4.20;;;1.25;;
57113;SDS011;42994;51.606;9.988;2023-03-23T02:03:52;2.92;;;1.15;;
57113;SDS011;42994;51.606;9.988;2023-03-23T02:06:20;1.50;;;1.20;;
57113;SDS011;42994;51.606;9.988;2023-03-23T02:09:04;1.85;;;1.10;;
57113;SDS011;42994;51.606;9.988;2023-03-23T02:11:33;1.25;;;0.80;;
57113;SDS011;42994;51.606;9.988;2023-03-23T02:16:32;2.45;;;1.10;;
57113;SDS011;42994;51.606;9.988;2023-03-23T02:19:12;1.65;;;1.15;;
57113;SDS011;42994;51.606;9.988;2023-03-23T02:22:02;1.30;;;1.20;;
57113;SDS011;42994;51.606;9.988;2023-03-23T02:24:57;3.38;;;1.20;;
57113;SDS011;42994;51.606;9.988;2023-03-23T02:27:43;0.97;;;0.87;;
57113;SDS011;42994;51.606;9.988;2023-03-23T02:33:42;3.10;;;1.20;;
57113;SDS011;42994;51.606;9.988;2023-03-23T02:36:18;1.65;;;1.08;;
57113;SDS011;42994;51.606;9.988;2023-03-23T02:38:51;2.70;;;1.25;;
57113;SDS011;42994;51.606;9.988;2023-03-23T02:41:24;3.10;;;1.17;;
57113;SDS011;42994;51.606;9.988;2023-03-23T02:43:56;1.80;;;1.20;;
57113;SDS011;42994;51.606;9.988;2023-03-23T02:46:25;3.28;;;1.13;;
57113;SDS011;42994;51.606;9.988;2023-03-23T02:48:54;2.70;;;0.95;;
57113;SDS011;42994;51.606;9.988;2023-03-23T02:51:23;1.63;;;1.10;;
57113;SDS011;42994;51.606;9.988;2023-03-23T02:53:53;2.95;;;1.30;;
57113;SDS011;42994;51.606;9.988;2023-03-23T02:56:22;2.35;;;1.00;;
57113;SDS011;42994;51.606;9.988;2023-03-23T02:58:53;4.77;;;1.00;;
57113;SDS011;42994;51.606;9.988;2023-03-23T03:04:16;1.90;;;0.93;;
57113;SDS011;42994;51.606;9.988;2023-03-23T03:06:46;1.30;;;1.00;;
57113;SDS011;42994;51.606;9.988;2023-03-23T03:09:22;1.65;;;0.85;;
57113;SDS011;42994;51.606;9.988;2023-03-23T03:11:58;1.00;;;0.90;;
57113;SDS011;42994;51.606;9.988;2023-03-23T03:14:31;2.08;;;1.65;;
57113;SDS011;42994;51.606;9.988;2023-03-23T03:17:02;1.63;;;1.33;;
57113;SDS011;42994;51.606;9.988;2023-03-23T03:19:34;2.78;;;1.33;;
57113;SDS011;42994;51.606;9.988;2023-03-23T03:22:04;3.47;;;1.08;;
57113;SDS011;42994;51.606;9.988;2023-03-23T03:24:37;4.03;;;1.33;;
57113;SDS011;42994;51.606;9.988;2023-03-23T03:27:10;1.55;;;1.30;;
57113;SDS011;42994;51.606;9.988;2023-03-23T03:29:45;5.07;;;1.42;;
57113;SDS011;42994;51.606;9.988;2023-03-23T03:32:16;2.05;;;1.20;;
57113;SDS011;42994;51.606;9.988;2023-03-23T03:34:49;2.28;;;1.10;;
57113;SDS011;42994;51.606;9.988;2023-03-23T03:37:18;1.98;;;1.30;;
57113;SDS011;42994;51.606;9.988;2023-03-23T03:39:46;3.45;;;1.25;;
57113;SDS011;42994;51.606;9.988;2023-03-23T03:42:13;2.67;;;1.40;;
57113;SDS011;42994;51.606;9.988;2023-03-23T03:44:40;2.72;;;1.20;;
57113;SDS011;42994;51.606;9.988;2023-03-23T03:47:06;2.70;;;1.17;;
57113;SDS011;42994;51.606;9.988;2023-03-23T03:49:33;2.00;;;1.10;;
57113;SDS011;42994;51.606;9.988;2023-03-23T03:52:02;2.67;;;1.13;;
57113;SDS011;42994;51.606;9.988;2023-03-23T03:54:39;1.40;;;1.30;;
57113;SDS011;42994;51.606;9.988;2023-03-23T03:57:06;2.08;;;1.10;;
57113;SDS011;42994;51.606;9.988;2023-03-23T03:59:51;2.72;;;1.20;;
57113;SDS011;42994;51.606;9.988;2023-03-23T04:02:42;3.25;;;1.40;;
57113;SDS011;42994;51.606;9.988;2023-03-23T04:05:12;3.65;;;1.30;;
57113;SDS011;42994;51.606;9.988;2023-03-23T04:07:45;4.20;;;1.98;;
57113;SDS011;42994;51.606;9.988;2023-03-23T04:10:14;4.80;;;1.65;;
57113;SDS011;42994;51.606;9.988;2023-03-23T04:12:43;2.33;;;1.48;;
57113;SDS011;42994;51.606;9.988;2023-03-23T04:15:33;1.92;;;1.60;;
57113;SDS011;42994;51.606;9.988;2023-03-23T04:18:00;2.28;;;1.50;;
57113;SDS011;42994;51.606;9.988;2023-03-23T04:20:29;1.88;;;1.20;;
57113;SDS011;42994;51.606;9.988;2023-03-23T04:22:57;2.03;;;1.30;;
57113;SDS011;42994;51.606;9.988;2023-03-23T04:27:58;7.25;;;1.83;;
57113;SDS011;42994;51.606;9.988;2023-03-23T04:30:29;2.78;;;1.52;;
57113;SDS011;42994;51.606;9.988;2023-03-23T04:33:02;3.35;;;1.20;;
57113;SDS011;42994;51.606;9.988;2023-03-23T04:35:29;3.92;;;1.48;;
57113;SDS011;42994;51.606;9.988;2023-03-23T04:38:17;2.50;;;2.30;;
57113;SDS011;42994;51.606;9.988;2023-03-23T04:40:51;4.35;;;1.38;;
57113;SDS011;42994;51.606;9.988;2023-03-23T04:43:38;1.60;;;1.20;;
57113;SDS011;42994;51.606;9.988;2023-03-23T04:46:25;3.83;;;1.65;;
57113;SDS011;42994;51.606;9.988;2023-03-23T04:48:54;4.75;;;1.80;;
57113;SDS011;42994;51.606;9.988;2023-03-23T04:51:28;6.30;;;1.88;;
57113;SDS011;42994;51.606;9.988;2023-03-23T04:54:00;2.22;;;1.67;;
57113;SDS011;42994;51.606;9.988;2023-03-23T04:56:30;3.58;;;2.65;;
57113;SDS011;42994;51.606;9.988;2023-03-23T04:59:02;3.75;;;2.10;;
57113;SDS011;42994;51.606;9.988;2023-03-23T05:01:40;3.95;;;1.80;;
57113;SDS011;42994;51.606;9.988;2023-03-23T05:04:18;2.08;;;1.25;;
57113;SDS011;42994;51.606;9.988;2023-03-23T05:07:08;2.13;;;1.35;;
57113;SDS011;42994;51.606;9.988;2023-03-23T05:09:46;1.85;;;1.13;;
57113;SDS011;42994;51.606;9.988;2023-03-23T05:12:14;1.83;;;1.60;;
57113;SDS011;42994;51.606;9.988;2023-03-23T05:14:49;1.73;;;1.50;;
57113;SDS011;42994;51.606;9.988;2023-03-23T05:17:19;2.25;;;1.80;;
57113;SDS011;42994;51.606;9.988;2023-03-23T05:19:49;2.67;;;1.35;;
57113;SDS011;42994;51.606;9.988;2023-03-23T05:22:32;4.20;;;1.98;;
57113;SDS011;42994;51.606;9.988;2023-03-23T05:25:02;2.35;;;1.30;;
57113;SDS011;42994;51.606;9.988;2023-03-23T05:27:33;2.63;;;1.67;;
57113;SDS011;42994;51.606;9.988;2023-03-23T05:30:08;3.53;;;1.45;;
57113;SDS011;42994;51.606;9.988;2023-03-23T05:32:38;4.15;;;1.42;;
57113;SDS011;42994;51.606;9.988;2023-03-23T05:35:22;2.28;;;1.52;;
57113;SDS011;42994;51.606;9.988;2023-03-23T05:37:50;2.58;;;1.60;;
57113;SDS011;42994;51.606;9.988;2023-03-23T05:40:20;2.88;;;1.48;;
57113;SDS011;42994;51.606;9.988;2023-03-23T05:42:55;5.85;;;2.03;;
57113;SDS011;42994;51.606;9.988;2023-03-23T05:45:32;1.42;;;1.33;;
57113;SDS011;42994;51.606;9.988;2023-03-23T05:47:58;1.77;;;1.40;;
57113;SDS011;42994;51.606;9.988;2023-03-23T05:50:27;3.72;;;1.40;;
57113;SDS011;42994;51.606;9.988;2023-03-23T05:52:54;3.95;;;1.52;;
57113;SDS011;42994;51.606;9.988;2023-03-23T05:55:25;1.95;;;1.23;;
57113;SDS011;42994;51.606;9.988;2023-03-23T05:58:02;2.60;;;1.50;;
57113;SDS011;42994;51.606;9.988;2023-03-23T06:00:32;1.75;;;1.30;;
57113;SDS011;42994;51.606;9.988;2023-03-23T06:03:12;2.35;;;1.55;;
57113;SDS011;42994;51.606;9.988;2023-03-23T06:05:59;7.28;;;1.83;;
57113;SDS011;42994;51.606;9.988;2023-03-23T06:08:33;2.97;;;1.67;;
57113;SDS011;42994;51.606;9.988;2023-03-23T06:11:03;3.53;;;1.63;;
57113;SDS011;42994;51.606;9.988;2023-03-23T06:13:35;2.28;;;1.40;;
57113;SDS011;42994;51.606;9.988;2023-03-23T06:16:06;2.63;;;1.33;;
57113;SDS011;42994;51.606;9.988;2023-03-23T06:18:55;3.10;;;1.25;;
57113;SDS011;42994;51.606;9.988;2023-03-23T06:21:29;2.45;;;1.42;;
57113;SDS011;42994;51.606;9.988;2023-03-23T06:26:32;2.08;;;1.10;;
57113;SDS011;42994;51.606;9.988;2023-03-23T06:29:04;1.70;;;1.13;;
57113;SDS011;42994;51.606;9.988;2023-03-23T06:31:37;2.55;;;1.23;;
57113;SDS011;42994;51.606;9.988;2023-03-23T06:34:08;1.58;;;1.30;;
57113;SDS011;42994;51.606;9.988;2023-03-23T06:36:57;4.32;;;1.52;;
57113;SDS011;42994;51.606;9.988;2023-03-23T06:39:44;1.95;;;1.33;;
57113;SDS011;42994;51.606;9.988;2023-03-23T06:42:35;1.38;;;1.15;;
57113;SDS011;42994;51.606;9.988;2023-03-23T06:45:25;3.90;;;1.50;;
57113;SDS011;42994;51.606;9.988;2023-03-23T06:48:11;2.83;;;1.50;;
57113;SDS011;42994;51.606;9.988;2023-03-23T06:50:38;2.25;;;1.50;;
57113;SDS011;42994;51.606;9.988;2023-03-23T06:53:08;1.60;;;1.30;;
57113;SDS011;42994;51.606;9.988;2023-03-23T06:55:35;1.58;;;1.02;;
57113;SDS011;42994;51.606;9.988;2023-03-23T06:58:04;1.45;;;1.20;;
57113;SDS011;42994;51.606;9.988;2023-03-23T07:00:31;1.85;;;1.73;;
57113;SDS011;42994;51.606;9.988;2023-03-23T07:02:59;3.10;;;1.38;;
57113;SDS011;42994;51.606;9.988;2023-03-23T07:05:26;2.92;;;1.25;;
57113;SDS011;42994;51.606;9.988;2023-03-23T07:07:54;2.47;;;1.15;;
57113;SDS011;42994;51.606;9.988;2023-03-23T07:10:33;1.75;;;1.40;;
57113;SDS011;42994;51.606;9.988;2023-03-23T07:13:02;1.38;;;1.00;;
57113;SDS011;42994;51.606;9.988;2023-03-23T07:15:39;2.22;;;1.33;;
57113;SDS011;42994;51.606;9.988;2023-03-23T07:18:06;2.30;;;1.17;;
57113;SDS011;42994;51.606;9.988;2023-03-23T07:20:39;3.42;;;1.50;;
57113;SDS011;42994;51.606;9.988;2023-03-23T07:23:06;1.20;;;1.10;;
57113;SDS011;42994;51.606;9.988;2023-03-23T07:25:57;2.20;;;1.10;;
57113;SDS011;42994;51.606;9.988;2023-03-23T07:28:30;1.20;;;1.00;;
57113;SDS011;42994;51.606;9.988;2023-03-23T07:31:05;1.17;;;1.08;;
57113;SDS011;42994;51.606;9.988;2023-03-23T07:33:33;1.30;;;1.05;;
57113;SDS011;42994;51.606;9.988;2023-03-23T07:36:01;1.35;;;1.17;;
57113;SDS011;42994;51.606;9.988;2023-03-23T07:38:28;1.60;;;1.23;;
57113;SDS011;42994;51.606;9.988;2023-03-23T07:40:58;2.53;;;1.30;;
57113;SDS011;42994;51.606;9.988;2023-03-23T07:43:25;2.38;;;1.35;;
57113;SDS011;42994;51.606;9.988;2023-03-23T07:46:12;4.53;;;1.85;;
57113;SDS011;42994;51.606;9.988;2023-03-23T07:49:02;1.73;;;1.23;;
57113;SDS011;42994;51.606;9.988;2023-03-23T07:51:35;2.00;;;1.33;;
57113;SDS011;42994;51.606;9.988;2023-03-23T07:54:06;3.38;;;1.40;;
57113;SDS011;42994;51.606;9.988;2023-03-23T07:56:53;2.15;;;1.38;;
57113;SDS011;42994;51.606;9.988;2023-03-23T07:59:23;2.20;;;1.52;;
57113;SDS011;42994;51.606;9.988;2023-03-23T08:01:53;4.10;;;1.27;;
57113;SDS011;42994;51.606;9.988;2023-03-23T08:04:30;1.50;;;1.00;;
57113;SDS011;42994;51.606;9.988;2023-03-23T08:07:14;1.85;;;1.08;;
57113;SDS011;42994;51.606;9.988;2023-03-23T08:09:58;4.10;;;1.27;;
57113;SDS011;42994;51.606;9.988;2023-03-23T08:12:50;1.83;;;1.10;;
57113;SDS011;42994;51.606;9.988;2023-03-23T08:15:27;1.50;;;1.30;;
57113;SDS011;42994;51.606;9.988;2023-03-23T08:18:08;3.03;;;1.30;;
57113;SDS011;42994;51.606;9.988;2023-03-23T08:20:41;2.25;;;1.08;;
57113;SDS011;42994;51.606;9.988;2023-03-23T08:23:43;1.52;;;1.42;;
57113;SDS011;42994;51.606;9.988;2023-03-23T08:26:28;4.95;;;1.13;;
57113;SDS011;42994;51.606;9.988;2023-03-23T08:29:15;1.98;;;1.10;;
57113;SDS011;42994;51.606;9.988;2023-03-23T08:32:08;1.58;;;1.33;;
57113;SDS011;42994;51.606;9.988;2023-03-23T08:34:53;1.73;;;1.48;;
57113;SDS011;42994;51.606;9.988;2023-03-23T08:37:26;2.55;;;1.45;;
57113;SDS011;42994;51.606;9.988;2023-03-23T08:40:12;1.75;;;1.40;;
57113;SDS011;42994;51.606;9.988;2023-03-23T08:42:58;3.63;;;1.20;;
57113;SDS011;42994;51.606;9.988;2023-03-23T08:45:25;2.47;;;1.20;;
57113;SDS011;42994;51.606;9.988;2023-03-23T08:47:52;2.28;;;1.50;;
57113;SDS011;42994;51.606;9.988;2023-03-23T08:50:42;3.30;;;1.42;;
57113;SDS011;42994;51.606;9.988;2023-03-23T08:53:09;2.63;;;1.27;;
57113;SDS011;42994;51.606;9.988;2023-03-23T08:55:45;2.40;;;1.42;;
57113;SDS011;42994;51.606;9.988;2023-03-23T08:58:30;1.65;;;1.20;;
57113;SDS011;42994;51.606;9.988;2023-03-23T09:01:09;3.30;;;1.70;;
57113;SDS011;42994;51.606;9.988;2023-03-23T09:03:58;3.88;;;1.40;;
57113;SDS011;42994;51.606;9.988;2023-03-23T09:06:46;3.15;;;1.90;;
57113;SDS011;42994;51.606;9.988;2023-03-23T09:09:12;2.70;;;1.38;;
57113;SDS011;42994;51.606;9.988;2023-03-23T09:11:39;1.40;;;1.30;;
57113;SDS011;42994;51.606;9.988;2023-03-23T09:14:06;2.45;;;1.50;;
57113;SDS011;42994;51.606;9.988;2023-03-23T09:16:33;1.70;;;1.30;;
57113;SDS011;42994;51.606;9.988;2023-03-23T09:19:01;2.22;;;1.40;;
57113;SDS011;42994;51.606;9.988;2023-03-23T09:21:27;6.43;;;1.92;;
57113;SDS011;42994;51.606;9.988;2023-03-23T09:23:56;4.30;;;1.55;;
57113;SDS011;42994;51.606;9.988;2023-03-23T09:26:23;3.65;;;1.63;;
57113;SDS011;42994;51.606;9.988;2023-03-23T09:28:50;4.05;;;1.60;;
57113;SDS011;42994;51.606;9.988;2023-03-23T09:31:17;4.20;;;1.77;;
57113;SDS011;42994;51.606;9.988;2023-03-23T09:33:45;3.58;;;1.70;;
57113;SDS011;42994;51.606;9.988;2023-03-23T09:36:16;4.25;;;1.52;;
57113;SDS011;42994;51.606;9.988;2023-03-23T09:38:43;4.07;;;1.60;;
57113;SDS011;42994;51.606;9.988;2023-03-23T09:41:14;2.85;;;1.50;;
57113;SDS011;42994;51.606;9.988;2023-03-23T09:43:53;3.85;;;1.40;;
57113;SDS011;42994;51.606;9.988;2023-03-23T09:46:33;3.55;;;1.38;;
57113;SDS011;42994;51.606;9.988;2023-03-23T09:49:08;3.47;;;1.30;;
57113;SDS011;42994;51.606;9.988;2023-03-23T09:51:40;3.33;;;1.60;;
57113;SDS011;42994;51.606;9.988;2023-03-23T09:56:40;4.15;;;1.77;;
57113;SDS011;42994;51.606;9.988;2023-03-23T09:59:10;3.38;;;1.88;;
57113;SDS011;42994;51.606;9.988;2023-03-23T10:01:43;2.10;;;1.42;;
57113;SDS011;42994;51.606;9.988;2023-03-23T10:04:13;3.15;;;1.90;;
57113;SDS011;42994;51.606;9.988;2023-03-23T10:06:48;4.93;;;1.55;;
57113;SDS011;42994;51.606;9.988;2023-03-23T10:09:16;3.78;;;1.60;;
57113;SDS011;42994;51.606;9.988;2023-03-23T10:11:50;2.67;;;1.55;;
57113;SDS011;42994;51.606;9.988;2023-03-23T10:14:29;2.42;;;1.23;;
57113;SDS011;42994;51.606;9.988;2023-03-23T10:17:03;2.65;;;1.45;;
57113;SDS011;42994;51.606;9.988;2023-03-23T10:19:41;3.20;;;1.38;;
57113;SDS011;42994;51.606;9.988;2023-03-23T10:24:43;2.58;;;1.45;;
57113;SDS011;42994;51.606;9.988;2023-03-23T10:27:19;2.35;;;1.25;;
57113;SDS011;42994;51.606;9.988;2023-03-23T10:29:53;3.58;;;1.80;;
57113;SDS011;42994;51.606;9.988;2023-03-23T10:32:36;3.72;;;1.88;;
57113;SDS011;42994;51.606;9.988;2023-03-23T10:35:09;2.90;;;1.88;;
57113;SDS011;42994;51.606;9.988;2023-03-23T10:37:41;2.20;;;1.50;;
57113;SDS011;42994;51.606;9.988;2023-03-23T10:40:14;2.73;;;1.47;;
57113;SDS011;42994;51.606;9.988;2023-03-23T10:42:45;3.67;;;1.50;;
57113;SDS011;42994;51.606;9.988;2023-03-23T10:45:15;3.10;;;1.83;;
57113;SDS011;42994;51.606;9.988;2023-03-23T10:47:45;3.00;;;1.75;;
57113;SDS011;42994;51.606;9.988;2023-03-23T10:50:17;2.30;;;1.60;;
57113;SDS011;42994;51.606;9.988;2023-03-23T10:52:48;2.80;;;1.67;;
57113;SDS011;42994;51.606;9.988;2023-03-23T10:55:19;1.98;;;1.45;;
57113;SDS011;42994;51.606;9.988;2023-03-23T10:57:59;2.72;;;1.48;;
57113;SDS011;42994;51.606;9.988;2023-03-23T11:00:27;2.92;;;1.60;;
57113;SDS011;42994;51.606;9.988;2023-03-23T11:02:59;4.70;;;1.48;;
57113;SDS011;42994;51.606;9.988;2023-03-23T11:05:32;3.17;;;1.50;;
57113;SDS011;42994;51.606;9.988;2023-03-23T11:08:02;3.20;;;1.55;;
57113;SDS011;42994;51.606;9.988;2023-03-23T11:10:34;4.32;;;1.63;;
57113;SDS011;42994;51.606;9.988;2023-03-23T11:13:04;2.92;;;1.40;;
57113;SDS011;42994;51.606;9.988;2023-03-23T11:15:35;4.50;;;1.50;;
57113;SDS011;42994;51.606;9.988;2023-03-23T11:18:08;3.95;;;2.05;;
57113;SDS011;42994;51.606;9.988;2023-03-23T11:20:39;2.90;;;1.30;;
57113;SDS011;42994;51.606;9.988;2023-03-23T11:23:15;4.13;;;1.43;;
57113;SDS011;42994;51.606;9.988;2023-03-23T11:25:53;2.80;;;1.40;;
57113;SDS011;42994;51.606;9.988;2023-03-23T11:28:26;3.70;;;1.40;;
57113;SDS011;42994;51.606;9.988;2023-03-23T11:30:57;3.17;;;1.80;;
57113;SDS011;42994;51.606;9.988;2023-03-23T11:33:28;3.42;;;1.50;;
57113;SDS011;42994;51.606;9.988;2023-03-23T11:35:55;3.70;;;1.50;;
57113;SDS011;42994;51.606;9.988;2023-03-23T11:38:23;2.88;;;1.70;;
57113;SDS011;42994;51.606;9.988;2023-03-23T11:40:52;3.40;;;1.50;;
57113;SDS011;42994;51.606;9.988;2023-03-23T11:43:20;2.33;;;1.52;;
57113;SDS011;42994;51.606;9.988;2023-03-23T11:45:51;4.93;;;1.80;;
57113;SDS011;42994;51.606;9.988;2023-03-23T11:48:30;4.67;;;1.73;;
57113;SDS011;42994;51.606;9.988;2023-03-23T11:51:02;3.65;;;1.30;;
57113;SDS011;42994;51.606;9.988;2023-03-23T11:53:40;5.00;;;1.30;;
57113;SDS011;42994;51.606;9.988;2023-03-23T11:56:13;5.95;;;1.42;;
57113;SDS011;42994;51.606;9.988;2023-03-23T11:58:45;4.22;;;1.60;;
57113;SDS011;42994;51.606;9.988;2023-03-23T12:01:16;4.93;;;1.60;;
57113;SDS011;42994;51.606;9.988;2023-03-23T12:06:48;3.03;;;1.55;;
57113;SDS011;42994;51.606;9.988;2023-03-23T12:09:26;3.20;;;1.30;;
57113;SDS011;42994;51.606;9.988;2023-03-23T12:12:07;3.75;;;1.25;;
57113;SDS011;42994;51.606;9.988;2023-03-23T12:14:44;4.03;;;1.80;;
57113;SDS011;42994;51.606;9.988;2023-03-23T12:17:23;2.43;;;1.27;;
57113;SDS011;42994;51.606;9.988;2023-03-23T12:20:01;4.90;;;1.77;;
57113;SDS011;42994;51.606;9.988;2023-03-23T12:22:42;2.22;;;1.35;;
57113;SDS011;42994;51.606;9.988;2023-03-23T12:25:35;3.05;;;1.50;;
57113;SDS011;42994;51.606;9.988;2023-03-23T12:28:22;3.07;;;1.30;;
57113;SDS011;42994;51.606;9.988;2023-03-23T12:30:59;3.47;;;1.60;;
57113;SDS011;42994;51.606;9.988;2023-03-23T12:33:37;4.43;;;1.83;;
57113;SDS011;42994;51.606;9.988;2023-03-23T12:36:18;2.78;;;1.13;;
57113;SDS011;42994;51.606;9.988;2023-03-23T12:39:02;3.50;;;1.10;;
57113;SDS011;42994;51.606;9.988;2023-03-23T12:41:51;3.28;;;1.35;;
57113;SDS011;42994;51.606;9.988;2023-03-23T12:44:25;3.13;;;1.13;;
57113;SDS011;42994;51.606;9.988;2023-03-23T12:47:03;2.38;;;1.15;;
57113;SDS011;42994;51.606;9.988;2023-03-23T12:49:37;4.32;;;1.50;;
57113;SDS011;42994;51.606;9.988;2023-03-23T12:52:11;2.80;;;1.40;;
57113;SDS011;42994;51.606;9.988;2023-03-23T12:54:43;4.18;;;1.35;;
57113;SDS011;42994;51.606;9.988;2023-03-23T12:57:18;2.83;;;1.10;;
57113;SDS011;42994;51.606;9.988;2023-03-23T12:59:53;2.88;;;1.40;;
57113;SDS011;42994;51.606;9.988;2023-03-23T13:02:23;3.45;;;1.13;;
57113;SDS011;42994;51.606;9.988;2023-03-23T13:04:57;2.47;;;0.93;;
57113;SDS011;42994;51.606;9.988;2023-03-23T13:07:29;4.18;;;1.08;;
57113;SDS011;42994;51.606;9.988;2023-03-23T13:10:01;2.78;;;1.05;;
57113;SDS011;42994;51.606;9.988;2023-03-23T13:12:31;2.10;;;0.95;;
57113;SDS011;42994;51.606;9.988;2023-03-23T13:15:06;2.22;;;1.20;;
57113;SDS011;42994;51.606;9.988;2023-03-23T13:17:46;2.45;;;1.20;;
57113;SDS011;42994;51.606;9.988;2023-03-23T13:20:26;2.20;;;0.82;;
57113;SDS011;42994;51.606;9.988;2023-03-23T13:23:09;1.67;;;0.88;;
57113;SDS011;42994;51.606;9.988;2023-03-23T13:25:45;1.33;;;0.90;;
57113;SDS011;42994;51.606;9.988;2023-03-23T13:28:15;2.05;;;0.98;;
57113;SDS011;42994;51.606;9.988;2023-03-23T13:30:59;2.20;;;0.90;;
57113;SDS011;42994;51.606;9.988;2023-03-23T13:33:34;1.30;;;0.80;;
57113;SDS011;42994;51.606;9.988;2023-03-23T13:36:05;3.60;;;1.00;;
57113;SDS011;42994;51.606;9.988;2023-03-23T13:38:36;1.85;;;0.95;;
57113;SDS011;42994;51.606;9.988;2023-03-23T13:41:08;1.90;;;0.80;;
57113;SDS011;42994;51.606;9.988;2023-03-23T13:43:38;2.92;;;1.00;;
57113;SDS011;42994;51.606;9.988;2023-03-23T13:46:07;0.85;;;0.73;;
57113;SDS011;42994;51.606;9.988;2023-03-23T13:48:43;2.10;;;0.80;;
57113;SDS011;42994;51.606;9.988;2023-03-23T13:51:33;1.80;;;0.82;;
57113;SDS011;42994;51.606;9.988;2023-03-23T13:54:12;1.33;;;0.70;;
57113;SDS011;42994;51.606;9.988;2023-03-23T13:56:41;1.70;;;0.85;;
57113;SDS011;42994;51.606;9.988;2023-03-23T13:59:14;1.85;;;0.80;;
57113;SDS011;42994;51.606;9.988;2023-03-23T14:01:42;1.50;;;0.82;;
57113;SDS011;42994;51.606;9.988;2023-03-23T14:04:11;2.97;;;1.17;;
57113;SDS011;42994;51.606;9.988;2023-03-23T14:06:42;2.38;;;0.80;;
57113;SDS011;42994;51.606;9.988;2023-03-23T14:09:16;1.30;;;0.93;;
57113;SDS011;42994;51.606;9.988;2023-03-23T14:11:45;1.58;;;0.60;;
57113;SDS011;42994;51.606;9.988;2023-03-23T14:14:18;1.77;;;0.73;;
57113;SDS011;42994;51.606;9.988;2023-03-23T14:16:50;2.03;;;0.68;;
57113;SDS011;42994;51.606;9.988;2023-03-23T14:19:19;1.50;;;0.80;;
57113;SDS011;42994;51.606;9.988;2023-03-23T14:21:51;1.00;;;0.70;;
57113;SDS011;42994;51.606;9.988;2023-03-23T14:24:21;2.15;;;0.82;;
57113;SDS011;42994;51.606;9.988;2023-03-23T14:26:51;2.00;;;0.80;;
57113;SDS011;42994;51.606;9.988;2023-03-23T14:29:19;1.35;;;0.90;;
57113;SDS011;42994;51.606;9.988;2023-03-23T14:31:50;2.28;;;0.75;;
57113;SDS011;42994;51.606;9.988;2023-03-23T14:34:20;1.05;;;0.80;;
57113;SDS011;42994;51.606;9.988;2023-03-23T14:36:48;1.60;;;0.85;;
57113;SDS011;42994;51.606;9.988;2023-03-23T14:39:19;1.10;;;0.70;;
57113;SDS011;42994;51.606;9.988;2023-03-23T14:41:49;0.95;;;0.60;;
57113;SDS011;42994;51.606;9.988;2023-03-23T14:44:18;1.27;;;0.93;;
57113;SDS011;42994;51.606;9.988;2023-03-23T14:46:49;2.88;;;1.05;;
57113;SDS011;42994;51.606;9.988;2023-03-23T14:49:17;1.80;;;0.90;;
57113;SDS011;42994;51.606;9.988;2023-03-23T14:51:47;3.60;;;0.80;;
57113;SDS011;42994;51.606;9.988;2023-03-23T14:54:20;1.80;;;0.80;;
57113;SDS011;42994;51.606;9.988;2023-03-23T14:56:49;3.40;;;0.80;;
57113;SDS011;42994;51.606;9.988;2023-03-23T14:59:16;0.80;;;0.70;;
57113;SDS011;42994;51.606;9.988;2023-03-23T15:01:43;1.27;;;0.70;;
57113;SDS011;42994;51.606;9.988;2023-03-23T15:04:13;1.52;;;0.60;;
57113;SDS011;42994;51.606;9.988;2023-03-23T15:06:42;1.50;;;0.70;;
57113;SDS011;42994;51.606;9.988;2023-03-23T15:09:12;0.95;;;0.70;;
57113;SDS011;42994;51.606;9.988;2023-03-23T15:11:50;3.00;;;0.95;;
57113;SDS011;42994;51.606;9.988;2023-03-23T15:14:20;1.15;;;0.80;;
57113;SDS011;42994;51.606;9.988;2023-03-23T15:16:49;1.00;;;0.90;;
57113;SDS011;42994;51.606;9.988;2023-03-23T15:19:19;2.65;;;0.80;;
57113;SDS011;42994;51.606;9.988;2023-03-23T15:21:49;1.80;;;1.00;;
57113;SDS011;42994;51.606;9.988;2023-03-23T15:24:19;1.88;;;0.88;;
57113;SDS011;42994;51.606;9.988;2023-03-23T15:26:51;0.93;;;0.70;;
57113;SDS011;42994;51.606;9.988;2023-03-23T15:29:19;3.78;;;0.73;;
57113;SDS011;42994;51.606;9.988;2023-03-23T15:31:48;8.85;;;1.23;;
57113;SDS011;42994;51.606;9.988;2023-03-23T15:34:24;1.00;;;0.90;;
57113;SDS011;42994;51.606;9.988;2023-03-23T15:36:57;1.52;;;0.80;;
57113;SDS011;42994;51.606;9.988;2023-03-23T15:39:27;0.95;;;0.60;;
57113;SDS011;42994;51.606;9.988;2023-03-23T15:41:56;1.85;;;1.00;;
57113;SDS011;42994;51.606;9.988;2023-03-23T15:44:25;2.13;;;0.70;;
57113;SDS011;42994;51.606;9.988;2023-03-23T15:49:41;2.58;;;2.17;;